Time;durP1;ratioP1;P1;durP2;ratioP2;P2;SDS_P1;SDS_P2;PMS_P1;PMS_P2;Temp;Humidity;BMP_temperature;BMP_pressure;BME280_temperature;BME280_humidity;BME280_pressure;Samples;Min_cycle;Max_cycle;Signal;HPM_P1;HPM_P2
2022/06/27 00:00:10;;;;;;;1.90;1.58;;;25.50;46.10;;;;;;5020840;28;20017;-70
2022/06/27 00:02:37;;;;;;;2.85;1.95;;;25.50;46.40;;;;;;5019113;28;20020;-67
2022/06/27 00:05:04;;;;;;;2.00;1.80;;;25.50;46.40;;;;;;5023045;28;20538;-69
2022/06/27 00:07:30;;;;;;;2.28;1.83;;;25.50;47.30;;;;;;5020386;28;20033;-72
2022/06/27 00:09:56;;;;;;;2.15;1.70;;;25.50;46.70;;;;;;5022627;28;20386;-72
2022/06/27 00:12:22;;;;;;;2.25;1.73;;;25.40;46.60;;;;;;5021025;28;20594;-69
2022/06/27 00:14:48;;;;;;;2.38;1.90;;;25.40;46.80;;;;;;5020665;28;20104;-71
2022/06/27 00:17:14;;;;;;;1.83;1.70;;;25.40;46.90;;;;;;5022029;28;20475;-70
2022/06/27 00:19:40;;;;;;;1.75;1.50;;;25.30;46.90;;;;;;5024041;28;20033;-69
2022/06/27 00:22:05;;;;;;;3.88;1.55;;;25.30;47.00;;;;;;5023806;28;20527;-72
2022/06/27 00:24:32;;;;;;;2.92;1.75;;;25.30;47.00;;;;;;5024444;28;20040;-73
2022/06/27 00:26:58;;;;;;;3.58;1.90;;;25.30;47.10;;;;;;5019129;28;20383;-71
2022/06/27 00:29:23;;;;;;;2.22;1.70;;;25.30;47.70;;;;;;5021174;28;20033;-72
2022/06/27 00:31:49;;;;;;;3.08;1.95;;;25.30;47.30;;;;;;5021942;28;20593;-72
2022/06/27 00:34:16;;;;;;;1.80;1.70;;;25.30;47.20;;;;;;5023121;28;20022;-72
2022/06/27 00:36:42;;;;;;;3.75;1.70;;;25.30;47.40;;;;;;5024003;28;20075;-71
2022/06/27 00:39:08;;;;;;;1.80;1.55;;;25.30;47.40;;;;;;5025523;28;20018;-69
2022/06/27 00:41:34;;;;;;;3.25;1.60;;;25.30;47.40;;;;;;5023807;28;20017;-72
2022/06/27 00:44:00;;;;;;;1.70;1.60;;;25.30;47.30;;;;;;5023998;28;20152;-73
2022/06/27 00:46:26;;;;;;;2.10;1.35;;;25.20;47.30;;;;;;5025143;28;20112;-74
2022/06/27 00:48:51;;;;;;;1.70;1.52;;;25.20;47.50;;;;;;5023741;28;20559;-69
2022/06/27 00:51:17;;;;;;;2.67;1.70;;;25.20;47.40;;;;;;5025731;28;20022;-69
2022/06/27 00:53:43;;;;;;;3.33;1.63;;;25.20;47.70;;;;;;5024832;28;20411;-69
2022/06/27 00:56:09;;;;;;;2.25;1.60;;;25.10;47.80;;;;;;5023881;28;20037;-74
2022/06/27 00:58:36;;;;;;;2.13;1.38;;;25.10;47.70;;;;;;5024339;28;20014;-73
2022/06/27 01:01:02;;;;;;;1.95;1.48;;;25.10;47.70;;;;;;5024249;28;20017;-71
2022/06/27 01:03:28;;;;;;;4.97;1.30;;;25.00;47.80;;;;;;5023795;28;20056;-75
2022/06/27 01:05:56;;;;;;;1.73;1.60;;;25.00;47.90;;;;;;5024205;28;20533;-72
2022/06/27 01:08:27;;;;;;;1.80;1.55;;;25.00;48.00;;;;;;5025048;28;20021;-70
2022/06/27 01:10:54;;;;;;;2.65;1.20;;;24.90;48.10;;;;;;5023889;28;20037;-74
2022/06/27 01:13:21;;;;;;;3.08;1.52;;;24.90;48.40;;;;;;5025709;28;20067;-71
2022/06/27 01:15:47;;;;;;;3.45;1.88;;;24.90;48.30;;;;;;5023690;28;20032;-74
2022/06/27 01:18:13;;;;;;;1.35;1.25;;;24.90;48.50;;;;;;5027520;28;20474;-70
2022/06/27 01:20:41;;;;;;;4.65;1.80;;;24.90;48.60;;;;;;5024813;28;20041;-73
2022/06/27 01:23:07;;;;;;;3.35;1.63;;;24.80;48.90;;;;;;5025797;28;20033;-73
2022/06/27 01:25:35;;;;;;;1.85;1.20;;;24.80;49.00;;;;;;5022885;28;20018;-72
2022/06/27 01:28:03;;;;;;;2.40;1.27;;;24.80;49.20;;;;;;5022989;28;20022;-68
2022/06/27 01:30:30;;;;;;;1.60;1.50;;;24.80;49.10;;;;;;5023325;28;20022;-72
2022/06/27 01:32:56;;;;;;;2.30;1.73;;;24.70;49.10;;;;;;5022779;28;20010;-71
2022/06/27 01:35:21;;;;;;;1.55;1.33;;;24.70;49.40;;;;;;5024064;28;20028;-72
2022/06/27 01:37:47;;;;;;;4.63;1.77;;;24.70;49.70;;;;;;5024233;28;20018;-72
2022/06/27 01:40:15;;;;;;;2.50;1.50;;;24.60;49.70;;;;;;5022601;28;20024;-69
2022/06/27 01:42:42;;;;;;;3.20;1.80;;;24.60;50.20;;;;;;5024198;28;20434;-70
2022/06/27 01:45:08;;;;;;;1.70;1.27;;;24.60;50.10;;;;;;5021695;28;20044;-70
2022/06/27 01:47:34;;;;;;;2.10;1.67;;;24.60;50.00;;;;;;5022456;28;20025;-73
2022/06/27 01:50:00;;;;;;;1.60;1.30;;;24.50;50.00;;;;;;5024207;28;20029;-69
2022/06/27 01:52:28;;;;;;;1.90;1.45;;;24.60;50.10;;;;;;5024028;28;20042;-69
2022/06/27 01:54:55;;;;;;;2.03;1.50;;;24.60;50.30;;;;;;5024856;28;20048;-70
2022/06/27 01:57:22;;;;;;;1.42;1.33;;;24.50;49.90;;;;;;5022918;28;20014;-72
2022/06/27 01:59:50;;;;;;;1.63;1.42;;;24.50;50.10;;;;;;5021574;28;20475;-72
2022/06/27 02:02:17;;;;;;;2.30;1.65;;;24.50;50.10;;;;;;5024615;28;20025;-71
2022/06/27 02:04:44;;;;;;;4.50;1.73;;;24.40;50.40;;;;;;5024877;28;20022;-72
2022/06/27 02:07:11;;;;;;;3.25;1.35;;;24.40;50.40;;;;;;5025198;28;20030;-72
2022/06/27 02:09:37;;;;;;;1.80;1.40;;;24.40;50.30;;;;;;5022268;28;20042;-72
2022/06/27 02:12:19;;;;;;;1.73;1.25;;;24.40;50.40;;;;;;5023336;28;20060;-74
2022/06/27 02:14:54;;;;;;;1.60;1.50;;;24.40;50.40;;;;;;5023087;28;20026;-72
2022/06/27 02:17:21;;;;;;;3.08;1.80;;;24.40;50.60;;;;;;5021219;28;20040;-68
2022/06/27 02:19:48;;;;;;;1.80;1.67;;;24.40;50.70;;;;;;5024579;28;20044;-70
2022/06/27 02:22:14;;;;;;;2.40;1.40;;;24.40;50.50;;;;;;5021856;28;20475;-73
2022/06/27 02:24:42;;;;;;;1.98;1.50;;;24.40;50.80;;;;;;5022846;28;20048;-70
2022/06/27 02:27:09;;;;;;;4.97;2.00;;;24.30;50.90;;;;;;5023311;28;20385;-69
2022/06/27 02:29:36;;;;;;;4.32;2.05;;;24.30;51.20;;;;;;5020447;28;20140;-71
2022/06/27 02:32:02;;;;;;;3.40;1.40;;;24.30;51.00;;;;;;5023095;28;20029;-68
2022/06/27 02:34:29;;;;;;;3.28;1.77;;;24.30;50.90;;;;;;5023267;28;20464;-71
2022/06/27 02:36:56;;;;;;;1.92;1.63;;;24.30;50.90;;;;;;5021376;28;20080;-74
2022/06/27 02:39:24;;;;;;;2.33;1.60;;;24.20;51.10;;;;;;5022979;28;20018;-74
2022/06/27 02:41:54;;;;;;;2.70;1.55;;;24.20;51.50;;;;;;5023317;28;20026;-70
2022/06/27 02:44:21;;;;;;;3.72;1.58;;;24.20;51.30;;;;;;5021690;28;20107;-72
2022/06/27 02:46:51;;;;;;;2.00;1.77;;;24.20;51.40;;;;;;5022166;28;20486;-72
2022/06/27 02:49:17;;;;;;;3.10;2.30;;;24.20;51.60;;;;;;5023390;28;20025;-72
2022/06/27 02:51:59;;;;;;;1.92;1.80;;;24.10;51.60;;;;;;5020793;28;20075;-74
2022/06/27 02:54:41;;;;;;;1.77;1.67;;;24.10;51.70;;;;;;5021415;28;20029;-75
2022/06/27 02:57:30;;;;;;;2.65;1.60;;;24.10;51.80;;;;;;5023161;28;20056;-70
2022/06/27 02:59:57;;;;;;;2.33;1.60;;;24.10;51.90;;;;;;5025320;28;20025;-72
2022/06/27 03:02:27;;;;;;;4.45;1.77;;;24.10;51.90;;;;;;5021778;28;20028;-71
2022/06/27 03:04:55;;;;;;;1.85;1.65;;;24.00;52.00;;;;;;5021089;28;20026;-71
2022/06/27 03:07:20;;;;;;;3.03;2.17;;;24.00;52.30;;;;;;5022671;28;20034;-69
2022/06/27 03:09:46;;;;;;;3.80;1.85;;;24.00;52.30;;;;;;5021056;28;20028;-69
2022/06/27 03:12:12;;;;;;;2.00;1.83;;;23.90;52.20;;;;;;5020912;28;20029;-69
2022/06/27 03:14:38;;;;;;;4.65;2.17;;;23.90;52.40;;;;;;5022363;28;20391;-67
2022/06/27 03:17:04;;;;;;;5.05;2.00;;;23.90;52.50;;;;;;5021902;28;20025;-70
2022/06/27 03:19:30;;;;;;;2.72;2.00;;;23.90;52.50;;;;;;5022422;28;20075;-70
2022/06/27 03:21:56;;;;;;;2.00;1.80;;;23.90;52.70;;;;;;5022767;28;20014;-70
2022/06/27 03:24:22;;;;;;;5.68;2.22;;;23.90;52.80;;;;;;5022031;28;20364;-71
2022/06/27 03:26:48;;;;;;;5.63;2.13;;;23.90;52.80;;;;;;5021349;28;20379;-72
2022/06/27 03:29:14;;;;;;;5.70;2.38;;;23.90;53.40;;;;;;5021334;28;20021;-73
2022/06/27 03:31:41;;;;;;;2.83;1.85;;;23.90;52.90;;;;;;5021117;28;20030;-69
2022/06/27 03:34:07;;;;;;;5.63;1.80;;;23.90;53.00;;;;;;5022804;28;20074;-74
2022/06/27 03:36:33;;;;;;;3.00;1.80;;;23.90;53.00;;;;;;5020352;28;20037;-72
2022/06/27 03:38:59;;;;;;;3.63;1.67;;;23.90;52.90;;;;;;5020934;28;20040;-71
2022/06/27 03:41:25;;;;;;;4.45;2.10;;;23.90;53.10;;;;;;5020137;28;20025;-73
2022/06/27 03:43:51;;;;;;;2.38;1.73;;;24.00;53.00;;;;;;5020553;28;20389;-72
2022/06/27 03:46:17;;;;;;;4.03;1.75;;;24.00;53.40;;;;;;5022322;28;20073;-69
2022/06/27 03:51:27;;;;;;;;;;;24.10;53.20;;;;;;5024156;28;20522;-72
2022/06/27 03:53:52;;;;;;;5.70;1.73;;;24.10;52.50;;;;;;5020384;28;19913;-72
2022/06/27 03:56:19;;;;;;;3.72;2.40;;;24.20;52.80;;;;;;5022272;28;20045;-75
2022/06/27 03:58:45;;;;;;;4.28;2.70;;;24.20;53.10;;;;;;5021684;28;20096;-75
2022/06/27 04:01:11;;;;;;;4.53;2.80;;;24.30;53.90;;;;;;5020705;28;20296;-73
2022/06/27 04:03:37;;;;;;;16.25;3.75;;;24.30;53.70;;;;;;5022298;28;20018;-72
2022/06/27 04:06:03;;;;;;;7.07;3.00;;;24.40;53.80;;;;;;5021041;28;20022;-75
2022/06/27 04:08:29;;;;;;;7.93;3.15;;;24.40;53.70;;;;;;5018985;28;20483;-72
2022/06/27 04:10:55;;;;;;;6.60;3.17;;;24.50;53.90;;;;;;5022116;28;20032;-73
2022/06/27 04:13:21;;;;;;;6.22;2.88;;;24.60;54.10;;;;;;5020493;28;20473;-73
2022/06/27 04:15:47;;;;;;;5.40;2.85;;;24.60;53.80;;;;;;5020767;28;20029;-73
2022/06/27 04:18:13;;;;;;;5.90;3.20;;;24.70;53.80;;;;;;5022009;28;20073;-72
2022/06/27 04:20:39;;;;;;;5.90;3.65;;;24.80;53.60;;;;;;5021879;28;20010;-73
2022/06/27 04:23:06;;;;;;;6.30;3.33;;;24.80;53.60;;;;;;5022931;28;20014;-73
2022/06/27 04:25:32;;;;;;;7.25;3.17;;;24.90;53.40;;;;;;5020057;28;20052;-75
2022/06/27 04:27:58;;;;;;;12.77;3.55;;;25.00;53.50;;;;;;5020027;28;20026;-69
2022/06/27 04:30:25;;;;;;;13.10;4.40;;;25.10;53.40;;;;;;5021133;28;20022;-72
2022/06/27 04:32:51;;;;;;;7.25;3.67;;;25.10;53.20;;;;;;5023352;28;20073;-68
2022/06/27 04:35:18;;;;;;;6.85;3.75;;;25.20;53.00;;;;;;5022782;28;20033;-71
2022/06/27 04:37:44;;;;;;;7.15;2.60;;;25.30;53.00;;;;;;5020665;28;20025;-71
2022/06/27 04:40:12;;;;;;;6.05;2.92;;;25.40;52.80;;;;;;5021231;28;20032;-74
2022/06/27 04:42:40;;;;;;;11.40;3.45;;;25.40;52.40;;;;;;5018586;28;20112;-73
2022/06/27 04:45:11;;;;;;;14.00;3.50;;;25.50;52.40;;;;;;5020929;28;20042;-66
2022/06/27 04:47:44;;;;;;;8.38;3.72;;;25.60;52.60;;;;;;5019703;28;20018;-72
2022/06/27 04:50:13;;;;;;;9.15;3.80;;;25.60;52.20;;;;;;5018867;28;20022;-67
2022/06/27 04:52:41;;;;;;;16.92;3.30;;;25.60;52.30;;;;;;5019618;28;20057;-67
2022/06/27 04:55:08;;;;;;;7.53;3.28;;;25.70;52.10;;;;;;5022579;28;20065;-70
2022/06/27 04:57:37;;;;;;;12.07;3.20;;;25.70;52.00;;;;;;5019381;28;20112;-73
2022/06/27 05:00:12;;;;;;;9.23;3.40;;;25.70;51.70;;;;;;5020905;28;20017;-67
2022/06/27 05:02:39;;;;;;;17.45;3.70;;;25.70;51.80;;;;;;5019559;28;20068;-71
2022/06/27 05:05:06;;;;;;;9.02;2.95;;;25.80;51.90;;;;;;5020507;28;20090;-68
2022/06/27 05:07:33;;;;;;;6.68;2.90;;;25.80;51.80;;;;;;5020120;28;20440;-72
2022/06/27 05:09:59;;;;;;;11.82;3.83;;;25.80;51.70;;;;;;5020361;28;20391;-72
2022/06/27 05:12:26;;;;;;;9.55;3.33;;;25.80;51.70;;;;;;5020497;28;20033;-70
2022/06/27 05:14:54;;;;;;;13.30;3.13;;;25.90;51.80;;;;;;5019578;28;20056;-70
2022/06/27 05:17:21;;;;;;;9.20;3.42;;;25.90;51.80;;;;;;5021526;28;20081;-74
2022/06/27 05:19:48;;;;;;;6.90;3.13;;;25.90;51.80;;;;;;5021336;28;20058;-69
2022/06/27 05:22:14;;;;;;;4.95;3.42;;;26.00;51.90;;;;;;5022840;28;20029;-70
2022/06/27 05:24:40;;;;;;;10.02;3.10;;;26.00;51.70;;;;;;5027064;28;20080;-71
2022/06/27 05:27:09;;;;;;;10.13;3.45;;;26.00;51.70;;;;;;5024345;28;20024;-72
2022/06/27 05:29:36;;;;;;;6.00;3.42;;;26.00;51.80;;;;;;5024785;28;20021;-69
2022/06/27 05:32:02;;;;;;;6.40;3.38;;;26.10;51.90;;;;;;5021408;28;20030;-67
2022/06/27 05:34:29;;;;;;;7.43;3.40;;;26.20;51.80;;;;;;5019424;28;20026;-70
2022/06/27 05:36:55;;;;;;;14.65;4.65;;;26.20;51.60;;;;;;5025966;28;20487;-69
2022/06/27 05:39:21;;;;;;;8.27;4.22;;;26.30;51.60;;;;;;5026122;28;20071;-69
2022/06/27 05:41:48;;;;;;;17.02;3.72;;;26.40;51.50;;;;;;5022806;28;20017;-69
2022/06/27 05:44:14;;;;;;;18.15;4.82;;;26.50;51.40;;;;;;5024252;28;20022;-70
2022/06/27 05:46:41;;;;;;;15.07;4.50;;;26.50;51.30;;;;;;5022752;28;20109;-71
2022/06/27 05:49:08;;;;;;;9.02;3.88;;;26.60;51.10;;;;;;5023652;28;20489;-68
2022/06/27 05:51:36;;;;;;;9.68;4.32;;;26.60;51.00;;;;;;5024265;28;20043;-70
2022/06/27 05:54:02;;;;;;;9.45;4.93;;;26.70;50.90;;;;;;5027057;28;20031;-71
2022/06/27 05:56:28;;;;;;;12.30;4.80;;;26.70;50.80;;;;;;5024942;28;20637;-68
2022/06/27 05:58:55;;;;;;;13.23;4.60;;;26.70;50.80;;;;;;5021077;28;20093;-72
2022/06/27 06:01:22;;;;;;;14.30;4.70;;;26.80;50.90;;;;;;5023940;28;20072;-71
2022/06/27 06:03:48;;;;;;;13.43;5.00;;;26.90;51.00;;;;;;5024374;28;20108;-73
2022/06/27 06:06:15;;;;;;;11.30;5.05;;;26.90;50.80;;;;;;5023556;28;20037;-71
2022/06/27 06:08:43;;;;;;;10.52;4.35;;;26.90;50.40;;;;;;5022721;28;20018;-71
2022/06/27 06:11:09;;;;;;;10.48;4.32;;;27.00;50.30;;;;;;5021777;28;20025;-74
2022/06/27 06:13:36;;;;;;;8.80;4.35;;;27.00;50.20;;;;;;5022129;28;20025;-70
2022/06/27 06:16:02;;;;;;;10.30;4.65;;;27.00;50.20;;;;;;5019857;28;20029;-67
2022/06/27 06:18:30;;;;;;;10.68;4.25;;;27.10;50.20;;;;;;5020817;28;20037;-71
2022/06/27 06:20:56;;;;;;;6.22;3.60;;;27.20;50.10;;;;;;5027825;28;20375;-68
2022/06/27 06:23:23;;;;;;;15.80;5.00;;;27.20;50.10;;;;;;5033843;28;20021;-69
2022/06/27 06:25:50;;;;;;;17.95;5.72;;;27.30;49.80;;;;;;5026278;28;20090;-74
2022/06/27 06:28:16;;;;;;;11.27;4.80;;;27.30;49.50;;;;;;5035024;28;20104;-71
2022/06/27 06:30:42;;;;;;;13.43;5.72;;;27.40;49.50;;;;;;5053257;28;20024;-70
2022/06/27 06:33:08;;;;;;;12.55;6.22;;;27.40;49.30;;;;;;5053585;28;20565;-70
2022/06/27 06:35:34;;;;;;;19.95;5.70;;;27.50;49.30;;;;;;5053629;28;20418;-72
2022/06/27 06:38:01;;;;;;;17.48;6.15;;;27.50;49.30;;;;;;5053694;28;20356;-70
2022/06/27 06:40:28;;;;;;;16.58;5.20;;;27.50;49.30;;;;;;5052182;28;20102;-73
2022/06/27 06:42:55;;;;;;;15.82;5.80;;;27.60;49.30;;;;;;5053798;28;20017;-69
2022/06/27 06:45:21;;;;;;;17.38;6.65;;;27.70;49.10;;;;;;5052399;28;20135;-72
2022/06/27 06:47:49;;;;;;;14.30;6.03;;;27.70;48.80;;;;;;5033886;28;20033;-69
2022/06/27 06:50:21;;;;;;;17.15;6.85;;;27.70;48.60;;;;;;5033854;28;20079;-71
2022/06/27 06:52:52;;;;;;;21.17;6.78;;;27.70;48.40;;;;;;5033869;28;20049;-72
2022/06/27 06:55:21;;;;;;;14.90;6.30;;;27.80;48.80;;;;;;5033751;28;20472;-74
2022/06/27 06:57:49;;;;;;;17.35;6.05;;;27.80;48.60;;;;;;5033635;28;20430;-73
2022/06/27 07:00:16;;;;;;;19.05;6.65;;;27.80;48.40;;;;;;5033795;28;20101;-70
2022/06/27 07:02:43;;;;;;;11.73;5.43;;;27.90;48.30;;;;;;5033606;28;20017;-68
2022/06/27 07:05:11;;;;;;;14.80;5.90;;;28.00;48.40;;;;;;5033576;28;20021;-70
2022/06/27 07:07:41;;;;;;;23.10;6.55;;;28.00;48.30;;;;;;5033593;28;20124;-71
2022/06/27 07:10:09;;;;;;;12.15;4.82;;;28.10;48.40;;;;;;5033576;28;20021;-74
2022/06/27 07:12:36;;;;;;;14.60;6.32;;;28.20;48.20;;;;;;5032091;28;20021;-71
2022/06/27 07:15:05;;;;;;;12.65;4.75;;;28.20;47.90;;;;;;5033406;28;20025;-71
2022/06/27 07:17:42;;;;;;;16.13;5.38;;;28.20;47.80;;;;;;5033317;28;20064;-69
2022/06/27 07:20:10;;;;;;;14.35;5.75;;;28.30;48.00;;;;;;5033430;28;20071;-71
2022/06/27 07:22:36;;;;;;;17.15;4.95;;;28.40;48.10;;;;;;5033190;28;20017;-75
2022/06/27 07:25:02;;;;;;;17.25;6.57;;;28.40;47.90;;;;;;5033338;28;20088;-76
2022/06/27 07:27:28;;;;;;;13.45;5.53;;;28.40;47.20;;;;;;5033269;28;20387;-73
2022/06/27 07:29:54;;;;;;;12.65;5.60;;;28.50;47.20;;;;;;5033153;28;20040;-69
2022/06/27 07:32:20;;;;;;;17.40;6.30;;;28.60;47.20;;;;;;5033125;28;20033;-71
2022/06/27 07:34:47;;;;;;;15.75;5.38;;;28.60;47.10;;;;;;5033088;28;20021;-71
2022/06/27 07:37:14;;;;;;;16.73;6.45;;;28.70;47.60;;;;;;5033011;28;20060;-71
2022/06/27 07:39:40;;;;;;;11.70;5.78;;;28.70;46.60;;;;;;5032989;28;20084;-71
2022/06/27 07:42:07;;;;;;;18.83;5.00;;;28.70;46.30;;;;;;5032082;28;20067;-73
2022/06/27 07:44:34;;;;;;;8.73;4.55;;;28.80;46.50;;;;;;5032465;28;20103;-72
2022/06/27 07:47:03;;;;;;;7.50;3.70;;;28.80;46.10;;;;;;5032945;28;20032;-73
2022/06/27 07:49:30;;;;;;;12.02;3.90;;;28.90;45.60;;;;;;5032913;28;20079;-68
2022/06/27 07:51:56;;;;;;;6.05;3.67;;;29.00;45.60;;;;;;5032808;28;20033;-71
2022/06/27 07:54:22;;;;;;;6.93;3.45;;;29.10;45.00;;;;;;5032754;28;20430;-74
2022/06/27 07:56:51;;;;;;;9.30;4.47;;;29.10;45.00;;;;;;5032533;28;20025;-70
2022/06/27 07:59:18;;;;;;;9.27;3.42;;;29.20;44.70;;;;;;5031373;28;20029;-73
2022/06/27 08:01:44;;;;;;;8.50;3.38;;;29.30;44.80;;;;;;5032717;28;20100;-70
2022/06/27 08:04:12;;;;;;;21.08;4.57;;;29.40;44.90;;;;;;5032690;28;20035;-71
2022/06/27 08:06:37;;;;;;;5.38;3.35;;;29.40;44.50;;;;;;5032414;28;20028;-72
2022/06/27 08:09:05;;;;;;;6.18;3.17;;;29.50;44.50;;;;;;5032672;28;20030;-72
2022/06/27 08:11:34;;;;;;;7.40;3.25;;;29.60;44.00;;;;;;5032444;28;20061;-68
2022/06/27 08:14:03;;;;;;;6.20;3.20;;;29.70;43.70;;;;;;5032533;28;20048;-75
2022/06/27 08:16:31;;;;;;;4.97;2.17;;;29.80;43.70;;;;;;5032478;28;20025;-70
2022/06/27 08:18:57;;;;;;;3.03;2.17;;;29.80;43.10;;;;;;5032430;28;20365;-72
2022/06/27 08:21:25;;;;;;;5.75;2.33;;;29.90;42.80;;;;;;5031172;28;20026;-67
2022/06/27 08:23:53;;;;;;;7.13;2.28;;;29.90;42.80;;;;;;5032421;28;20026;-70
2022/06/27 08:26:21;;;;;;;4.90;2.53;;;30.00;42.00;;;;;;5032551;28;20022;-72
2022/06/27 08:28:47;;;;;;;6.80;3.10;;;30.00;41.50;;;;;;5031546;28;20488;-70
2022/06/27 08:31:14;;;;;;;5.53;2.80;;;30.10;41.50;;;;;;5032446;28;20105;-71
2022/06/27 08:33:43;;;;;;;3.85;2.00;;;30.10;41.90;;;;;;5032253;28;20376;-67
2022/06/27 08:36:09;;;;;;;4.28;2.25;;;30.20;42.20;;;;;;5030708;28;20079;-70
2022/06/27 08:38:50;;;;;;;5.55;2.92;;;30.20;42.10;;;;;;5030872;28;20095;-69
2022/06/27 08:41:21;;;;;;;5.57;2.95;;;30.30;41.80;;;;;;5032359;28;20379;-68
2022/06/27 08:43:48;;;;;;;9.65;3.30;;;30.40;41.80;;;;;;5032210;28;20041;-69
2022/06/27 08:46:17;;;;;;;7.18;2.42;;;30.40;41.70;;;;;;5032082;28;20124;-66
2022/06/27 08:48:45;;;;;;;6.75;2.80;;;30.50;41.60;;;;;;5032260;28;20022;-71
2022/06/27 08:51:12;;;;;;;8.02;3.40;;;30.60;41.60;;;;;;5032222;28;20030;-69
2022/06/27 08:53:38;;;;;;;5.30;3.20;;;30.60;41.60;;;;;;5032580;28;20033;-70
2022/06/27 08:56:09;;;;;;;7.35;3.28;;;30.70;41.50;;;;;;5035974;28;20033;-71
2022/06/27 08:58:36;;;;;;;6.35;3.47;;;30.80;41.30;;;;;;5036002;28;20022;-70
2022/06/27 09:01:02;;;;;;;9.55;3.80;;;30.80;40.90;;;;;;5035886;28;20025;-73
2022/06/27 09:03:29;;;;;;;8.73;4.25;;;30.90;41.00;;;;;;5035818;28;20033;-72
2022/06/27 09:06:00;;;;;;;14.13;3.95;;;30.90;40.10;;;;;;5035892;28;20105;-70
2022/06/27 09:08:51;;;;;;;9.05;4.22;;;31.00;40.20;;;;;;5034455;28;20025;-69
2022/06/27 09:11:30;;;;;;;6.90;3.60;;;31.00;40.00;;;;;;5035592;28;20033;-69
2022/06/27 09:13:56;;;;;;;8.68;3.15;;;31.10;40.40;;;;;;5035820;28;20030;-72
2022/06/27 09:16:22;;;;;;;5.88;2.90;;;31.10;40.10;;;;;;5035635;28;20128;-71
2022/06/27 09:18:48;;;;;;;7.28;3.17;;;31.10;39.50;;;;;;5035726;28;20022;-72
2022/06/27 09:21:15;;;;;;;4.68;3.20;;;31.20;39.60;;;;;;5035600;28;20033;-72
2022/06/27 09:24:01;;;;;;;6.68;3.30;;;31.20;39.80;;;;;;5035559;28;20026;-73
2022/06/27 09:26:30;;;;;;;9.98;3.70;;;31.30;39.40;;;;;;5035584;28;20026;-71
2022/06/27 09:28:57;;;;;;;7.40;3.10;;;31.30;39.10;;;;;;5035521;28;20022;-72
2022/06/27 09:31:28;;;;;;;6.72;3.08;;;31.30;38.70;;;;;;5035472;28;20029;-71
2022/06/27 09:34:18;;;;;;;6.65;3.15;;;31.40;38.80;;;;;;5033969;28;20021;-66
2022/06/27 09:37:03;;;;;;;5.20;2.50;;;31.40;39.10;;;;;;5035194;28;20036;-72
2022/06/27 09:39:33;;;;;;;5.25;2.60;;;31.40;38.70;;;;;;5033971;28;20500;-73
2022/06/27 09:42:08;;;;;;;11.80;3.38;;;31.50;38.90;;;;;;5034842;28;20136;-71
2022/06/27 09:44:38;;;;;;;6.80;3.10;;;31.50;38.90;;;;;;5035070;28;20033;-72
2022/06/27 09:47:17;;;;;;;6.55;2.97;;;31.50;39.50;;;;;;5035174;28;20028;-70
2022/06/27 09:49:48;;;;;;;9.55;4.53;;;31.60;39.40;;;;;;5034898;28;20081;-73
2022/06/27 09:52:19;;;;;;;5.13;3.28;;;31.70;39.10;;;;;;5034835;28;20025;-69
2022/06/27 09:54:48;;;;;;;4.97;2.90;;;31.70;38.60;;;;;;5034785;28;20029;-72
2022/06/27 09:57:16;;;;;;;7.82;3.15;;;31.80;38.90;;;;;;5033509;28;20029;-73
2022/06/27 09:59:43;;;;;;;8.63;3.10;;;31.80;38.60;;;;;;5034736;28;20481;-70
2022/06/27 10:02:09;;;;;;;9.15;3.38;;;31.90;38.50;;;;;;5034696;28;20082;-70
2022/06/27 10:04:37;;;;;;;5.35;2.85;;;32.00;38.50;;;;;;5033247;28;20026;-73
2022/06/27 10:07:06;;;;;;;7.60;3.05;;;32.00;38.70;;;;;;5033918;28;20493;-72
2022/06/27 10:09:35;;;;;;;7.40;3.25;;;32.10;38.20;;;;;;5034469;28;20117;-74
2022/06/27 10:12:23;;;;;;;16.05;3.15;;;32.10;38.90;;;;;;5033331;28;20025;-72
2022/06/27 10:15:07;;;;;;;3.38;2.25;;;32.20;38.50;;;;;;5034220;28;20144;-72
2022/06/27 10:17:37;;;;;;;6.75;2.92;;;32.30;38.20;;;;;;5034434;28;20029;-69
2022/06/27 10:20:10;;;;;;;5.28;2.80;;;32.40;37.80;;;;;;5032936;28;20030;-69
2022/06/27 10:22:36;;;;;;;4.50;3.23;;;32.40;38.10;;;;;;5034156;28;20021;-73
2022/06/27 10:25:26;;;;;;;5.53;2.65;;;32.50;37.80;;;;;;5034268;28;20080;-68
2022/06/27 10:28:20;;;;;;;6.55;2.75;;;32.60;37.80;;;;;;5033980;28;20025;-69
2022/06/27 10:30:56;;;;;;;4.90;2.80;;;32.70;38.20;;;;;;5033306;28;20083;-73
2022/06/27 10:33:28;;;;;;;3.88;2.85;;;32.70;37.80;;;;;;5034157;28;20017;-69
2022/06/27 10:36:05;;;;;;;6.38;2.75;;;32.80;37.80;;;;;;5032956;28;20029;-70
2022/06/27 10:38:39;;;;;;;3.42;2.42;;;32.90;37.50;;;;;;5033026;28;20021;-68
2022/06/27 10:41:28;;;;;;;4.22;2.67;;;32.90;37.90;;;;;;5034160;28;20096;-70
2022/06/27 10:43:56;;;;;;;5.05;2.35;;;33.00;37.60;;;;;;5033795;28;20062;-72
2022/06/27 10:46:22;;;;;;;5.50;2.80;;;33.10;37.10;;;;;;5034258;28;20052;-69
2022/06/27 10:48:53;;;;;;;7.15;2.58;;;33.20;36.80;;;;;;5033943;28;20399;-70
2022/06/27 10:51:32;;;;;;;5.20;2.30;;;33.20;36.10;;;;;;5033993;28;20028;-67
2022/06/27 10:54:07;;;;;;;3.33;2.00;;;33.20;36.80;;;;;;5032596;28;20068;-71
2022/06/27 10:56:53;;;;;;;3.53;2.35;;;33.30;36.90;;;;;;5033747;28;20022;-71
2022/06/27 10:59:41;;;;;;;3.65;2.40;;;33.40;35.80;;;;;;5033930;28;20470;-70
2022/06/27 11:02:09;;;;;;;7.70;1.80;;;33.40;36.30;;;;;;5032431;28;20382;-73
2022/06/27 11:04:36;;;;;;;10.45;2.58;;;33.50;36.60;;;;;;5033668;28;20037;-72
2022/06/27 11:07:07;;;;;;;4.57;2.45;;;33.60;36.70;;;;;;5033472;28;20025;-65
2022/06/27 11:09:39;;;;;;;5.63;1.88;;;33.60;34.50;;;;;;5033611;28;20036;-70
2022/06/27 11:12:07;;;;;;;7.18;2.33;;;33.70;34.10;;;;;;5032286;28;20041;-71
2022/06/27 11:14:47;;;;;;;5.15;2.00;;;33.80;34.50;;;;;;5033439;28;20032;-70
2022/06/27 11:17:38;;;;;;;8.45;2.20;;;33.80;34.50;;;;;;5032109;28;20057;-70
2022/06/27 11:20:20;;;;;;;2.33;1.67;;;33.90;34.00;;;;;;5033475;28;20169;-70
2022/06/27 11:22:51;;;;;;;5.10;2.20;;;34.00;34.50;;;;;;5033182;28;20025;-72
2022/06/27 11:25:20;;;;;;;3.63;1.70;;;34.00;34.00;;;;;;5033299;28;20017;-66
2022/06/27 11:27:58;;;;;;;2.90;1.75;;;34.10;33.60;;;;;;5033251;28;20100;-71
2022/06/27 11:33:18;;;;;;;3.45;1.77;;;34.20;32.00;;;;;;5033304;28;20060;-70
2022/06/27 11:35:47;;;;;;;10.80;2.30;;;34.30;32.70;;;;;;5031737;28;20104;-71
2022/06/27 11:38:22;;;;;;;3.90;2.30;;;34.30;33.30;;;;;;5032930;28;20024;-73
2022/06/27 11:41:08;;;;;;;4.85;2.17;;;34.40;33.90;;;;;;5032968;28;20030;-70
2022/06/27 11:43:50;;;;;;;6.82;2.47;;;34.50;33.80;;;;;;5033587;28;20101;-69
2022/06/27 11:46:31;;;;;;;10.32;2.05;;;34.60;33.20;;;;;;5031358;28;20449;-70
2022/06/27 11:49:00;;;;;;;3.15;1.95;;;34.60;32.90;;;;;;5032838;28;20026;-69
2022/06/27 11:51:41;;;;;;;3.92;2.20;;;34.60;32.60;;;;;;5032709;28;20025;-74
2022/06/27 11:54:13;;;;;;;2.45;2.00;;;34.70;33.20;;;;;;5032884;28;20025;-70
2022/06/27 11:56:41;;;;;;;3.63;1.77;;;34.70;33.50;;;;;;5032752;28;20037;-72
2022/06/27 11:59:09;;;;;;;3.13;2.08;;;34.70;33.30;;;;;;5032779;28;20018;-70
2022/06/27 12:01:56;;;;;;;5.75;2.15;;;34.80;33.70;;;;;;5032664;28;20021;-69
2022/06/27 12:04:28;;;;;;;4.80;2.25;;;34.90;33.50;;;;;;5032686;28;20018;-69
2022/06/27 12:07:06;;;;;;;4.82;2.13;;;34.90;33.20;;;;;;5032566;28;20030;-70
2022/06/27 12:09:47;;;;;;;7.03;2.30;;;35.00;33.10;;;;;;5032618;28;20116;-70
2022/06/27 12:12:21;;;;;;;4.53;2.00;;;35.10;32.50;;;;;;5032632;28;20033;-74
2022/06/27 12:14:49;;;;;;;5.47;2.40;;;35.10;31.80;;;;;;5032643;28;20025;-69
2022/06/27 12:17:16;;;;;;;5.00;1.80;;;35.10;31.30;;;;;;5032406;28;20030;-73
2022/06/27 12:19:42;;;;;;;3.97;1.92;;;35.20;31.70;;;;;;5032488;28;20017;-72
2022/06/27 12:22:09;;;;;;;2.83;2.13;;;35.20;31.70;;;;;;5029588;28;20095;-67
2022/06/27 12:24:35;;;;;;;3.35;1.95;;;35.20;31.70;;;;;;5011466;28;20022;-69
2022/06/27 12:27:01;;;;;;;8.05;2.20;;;35.20;32.10;;;;;;5012753;28;20010;-67
2022/06/27 12:29:26;;;;;;;3.65;1.80;;;35.30;31.30;;;;;;5014399;28;20100;-71
2022/06/27 12:31:52;;;;;;;4.22;2.08;;;35.40;31.90;;;;;;5016733;28;20022;-74
2022/06/27 12:34:18;;;;;;;8.07;2.20;;;35.40;30.80;;;;;;5016489;28;20029;-72
2022/06/27 12:36:44;;;;;;;4.80;1.80;;;35.40;30.60;;;;;;5031741;28;20480;-71
2022/06/27 12:39:10;;;;;;;4.38;1.83;;;35.50;30.00;;;;;;5016650;28;20026;-73
2022/06/27 12:41:37;;;;;;;7.10;1.90;;;35.50;28.90;;;;;;5016591;28;20376;-73
2022/06/27 12:44:04;;;;;;;4.03;1.40;;;35.50;28.10;;;;;;5016367;28;20022;-70
2022/06/27 12:46:31;;;;;;;4.22;1.23;;;35.60;28.80;;;;;;5031778;28;20091;-70
2022/06/27 12:48:57;;;;;;;3.78;1.52;;;35.60;28.20;;;;;;5016487;28;20030;-71
2022/06/27 12:51:26;;;;;;;4.13;1.63;;;35.70;27.80;;;;;;5016504;28;20030;-72
2022/06/27 12:53:54;;;;;;;3.35;1.75;;;35.70;28.00;;;;;;5016423;28;20026;-70
2022/06/27 12:56:21;;;;;;;10.45;2.05;;;35.80;27.70;;;;;;5030829;28;20025;-70
2022/06/27 12:58:47;;;;;;;3.75;1.65;;;35.90;27.00;;;;;;5036157;28;20014;-70